sensor_id;sensor_type;location;lat;lon;timestamp;temperature;humidity
66598;DHT22;57424;53.128;6.406;2023-04-03T00:02:07;19.30;47.80
66598;DHT22;57424;53.128;6.406;2023-04-03T00:04:32;19.20;47.70
66598;DHT22;57424;53.128;6.406;2023-04-03T00:06:58;19.20;47.70
66598;DHT22;57424;53.128;6.406;2023-04-03T00:09:23;19.10;47.70
66598;DHT22;57424;53.128;6.406;2023-04-03T00:11:49;19.10;47.70
66598;DHT22;57424;53.128;6.406;2023-04-03T00:14:15;19.10;47.70
66598;DHT22;57424;53.128;6.406;2023-04-03T00:16:40;19.10;47.70
66598;DHT22;57424;53.128;6.406;2023-04-03T00:19:06;19.00;47.70
66598;DHT22;57424;53.128;6.406;2023-04-03T00:21:32;19.00;47.70
66598;DHT22;57424;53.128;6.406;2023-04-03T00:23:58;19.00;47.80
66598;DHT22;57424;53.128;6.406;2023-04-03T00:26:23;19.00;47.80
66598;DHT22;57424;53.128;6.406;2023-04-03T00:28:49;18.90;47.80
66598;DHT22;57424;53.128;6.406;2023-04-03T00:31:15;18.90;47.90
66598;DHT22;57424;53.128;6.406;2023-04-03T00:33:41;18.90;47.90
66598;DHT22;57424;53.128;6.406;2023-04-03T00:36:09;18.80;47.90
66598;DHT22;57424;53.128;6.406;2023-04-03T00:38:35;18.80;48.00
66598;DHT22;57424;53.128;6.406;2023-04-03T00:41:00;18.70;48.00
66598;DHT22;57424;53.128;6.406;2023-04-03T00:43:26;18.70;48.00
66598;DHT22;57424;53.128;6.406;2023-04-03T00:45:53;18.70;48.00
66598;DHT22;57424;53.128;6.406;2023-04-03T00:48:44;18.70;48.00
66598;DHT22;57424;53.128;6.406;2023-04-03T00:51:23;18.70;48.00
66598;DHT22;57424;53.128;6.406;2023-04-03T00:53:54;18.60;48.00
66598;DHT22;57424;53.128;6.406;2023-04-03T00:56:23;18.60;48.10
66598;DHT22;57424;53.128;6.406;2023-04-03T00:58:59;18.60;48.10
66598;DHT22;57424;53.128;6.406;2023-04-03T01:01:28;18.50;48.10
66598;DHT22;57424;53.128;6.406;2023-04-03T01:03:54;18.50;48.10
66598;DHT22;57424;53.128;6.406;2023-04-03T01:06:24;18.50;48.10
66598;DHT22;57424;53.128;6.406;2023-04-03T01:08:52;18.50;48.10
66598;DHT22;57424;53.128;6.406;2023-04-03T01:11:18;18.40;48.10
66598;DHT22;57424;53.128;6.406;2023-04-03T01:13:44;18.40;48.10
66598;DHT22;57424;53.128;6.406;2023-04-03T01:16:10;18.40;48.10
66598;DHT22;57424;53.128;6.406;2023-04-03T01:18:37;18.40;48.10
66598;DHT22;57424;53.128;6.406;2023-04-03T01:26:32;18.30;48.10
66598;DHT22;57424;53.128;6.406;2023-04-03T01:28:59;18.30;48.20
66598;DHT22;57424;53.128;6.406;2023-04-03T01:31:53;18.30;48.20
66598;DHT22;57424;53.128;6.406;2023-04-03T01:34:19;18.30;48.20
66598;DHT22;57424;53.128;6.406;2023-04-03T01:36:45;18.30;48.20
66598;DHT22;57424;53.128;6.406;2023-04-03T01:39:11;18.30;48.20
66598;DHT22;57424;53.128;6.406;2023-04-03T01:41:37;18.30;48.20
66598;DHT22;57424;53.128;6.406;2023-04-03T01:44:02;18.20;48.10
66598;DHT22;57424;53.128;6.406;2023-04-03T01:46:29;18.20;48.10
66598;DHT22;57424;53.128;6.406;2023-04-03T01:48:55;18.20;48.10
66598;DHT22;57424;53.128;6.406;2023-04-03T01:51:21;18.20;48.10
66598;DHT22;57424;53.128;6.406;2023-04-03T01:53:46;18.20;48.10
66598;DHT22;57424;53.128;6.406;2023-04-03T01:56:12;18.20;48.10
66598;DHT22;57424;53.128;6.406;2023-04-03T01:58:38;18.20;48.10
66598;DHT22;57424;53.128;6.406;2023-04-03T02:01:04;18.20;48.10
66598;DHT22;57424;53.128;6.406;2023-04-03T02:03:30;18.10;48.10
66598;DHT22;57424;53.128;6.406;2023-04-03T02:05:56;18.10;48.20
66598;DHT22;57424;53.128;6.406;2023-04-03T02:08:21;18.10;48.10
66598;DHT22;57424;53.128;6.406;2023-04-03T02:10:48;18.10;48.10
66598;DHT22;57424;53.128;6.406;2023-04-03T02:13:14;18.10;48.10
66598;DHT22;57424;53.128;6.406;2023-04-03T02:15:40;18.10;48.10
66598;DHT22;57424;53.128;6.406;2023-04-03T02:18:06;18.10;48.10
66598;DHT22;57424;53.128;6.406;2023-04-03T02:20:32;18.00;48.10
66598;DHT22;57424;53.128;6.406;2023-04-03T02:22:58;18.00;48.10
66598;DHT22;57424;53.128;6.406;2023-04-03T02:25:24;18.00;48.10
66598;DHT22;57424;53.128;6.406;2023-04-03T02:27:49;18.00;48.00
66598;DHT22;57424;53.128;6.406;2023-04-03T02:30:15;18.00;48.10
66598;DHT22;57424;53.128;6.406;2023-04-03T02:32:42;18.00;48.10
66598;DHT22;57424;53.128;6.406;2023-04-03T02:35:09;18.00;48.10
66598;DHT22;57424;53.128;6.406;2023-04-03T02:37:34;18.00;48.10
66598;DHT22;57424;53.128;6.406;2023-04-03T02:40:00;18.00;48.10
66598;DHT22;57424;53.128;6.406;2023-04-03T02:42:26;18.00;48.10
66598;DHT22;57424;53.128;6.406;2023-04-03T02:44:51;18.00;48.10
66598;DHT22;57424;53.128;6.406;2023-04-03T02:47:17;18.00;48.10
66598;DHT22;57424;53.128;6.406;2023-04-03T02:49:43;17.90;48.10
66598;DHT22;57424;53.128;6.406;2023-04-03T02:52:12;17.90;48.00
66598;DHT22;57424;53.128;6.406;2023-04-03T02:54:38;17.90;48.00
66598;DHT22;57424;53.128;6.406;2023-04-03T02:57:03;17.90;48.10
66598;DHT22;57424;53.128;6.406;2023-04-03T02:59:29;17.90;48.00
66598;DHT22;57424;53.128;6.406;2023-04-03T03:01:55;17.90;48.00
66598;DHT22;57424;53.128;6.406;2023-04-03T03:04:21;17.90;48.00
66598;DHT22;57424;53.128;6.406;2023-04-03T03:06:47;17.90;48.00
66598;DHT22;57424;53.128;6.406;2023-04-03T03:09:13;17.80;48.00
66598;DHT22;57424;53.128;6.406;2023-04-03T03:11:39;17.80;48.00
66598;DHT22;57424;53.128;6.406;2023-04-03T03:14:05;17.80;47.90
66598;DHT22;57424;53.128;6.406;2023-04-03T03:16:30;17.80;47.90
66598;DHT22;57424;53.128;6.406;2023-04-03T03:18:56;17.80;47.90
66598;DHT22;57424;53.128;6.406;2023-04-03T03:21:21;17.80;47.90
66598;DHT22;57424;53.128;6.406;2023-04-03T03:23:47;17.80;47.90
66598;DHT22;57424;53.128;6.406;2023-04-03T03:26:13;17.80;48.00
66598;DHT22;57424;53.128;6.406;2023-04-03T03:28:39;17.70;47.90
66598;DHT22;57424;53.128;6.406;2023-04-03T03:31:06;17.70;47.80
66598;DHT22;57424;53.128;6.406;2023-04-03T03:33:32;17.70;47.80
66598;DHT22;57424;53.128;6.406;2023-04-03T03:35:58;17.70;47.90
66598;DHT22;57424;53.128;6.406;2023-04-03T03:38:23;17.70;47.80
66598;DHT22;57424;53.128;6.406;2023-04-03T03:40:50;17.70;47.80
66598;DHT22;57424;53.128;6.406;2023-04-03T03:43:16;17.70;47.80
66598;DHT22;57424;53.128;6.406;2023-04-03T03:45:43;17.70;47.90
66598;DHT22;57424;53.128;6.406;2023-04-03T03:48:08;17.70;47.80
66598;DHT22;57424;53.128;6.406;2023-04-03T03:50:34;17.70;47.90
66598;DHT22;57424;53.128;6.406;2023-04-03T03:52:59;17.70;47.80
66598;DHT22;57424;53.128;6.406;2023-04-03T03:55:25;17.70;47.80
66598;DHT22;57424;53.128;6.406;2023-04-03T03:57:51;17.70;47.80
66598;DHT22;57424;53.128;6.406;2023-04-03T04:00:17;17.70;47.70
66598;DHT22;57424;53.128;6.406;2023-04-03T04:02:43;17.70;47.70
66598;DHT22;57424;53.128;6.406;2023-04-03T04:05:09;17.70;47.70
66598;DHT22;57424;53.128;6.406;2023-04-03T04:07:34;17.70;47.70
66598;DHT22;57424;53.128;6.406;2023-04-03T04:10:00;17.70;47.60
66598;DHT22;57424;53.128;6.406;2023-04-03T04:12:26;17.70;47.60
66598;DHT22;57424;53.128;6.406;2023-04-03T04:14:51;17.70;47.60
66598;DHT22;57424;53.128;6.406;2023-04-03T04:17:17;17.70;47.60
66598;DHT22;57424;53.128;6.406;2023-04-03T04:19:43;17.70;48.20
66598;DHT22;57424;53.128;6.406;2023-04-03T04:22:09;17.70;47.50
66598;DHT22;57424;53.128;6.406;2023-04-03T04:24:34;17.70;47.50
66598;DHT22;57424;53.128;6.406;2023-04-03T04:27:00;17.70;47.60
66598;DHT22;57424;53.128;6.406;2023-04-03T04:29:25;17.70;47.70
66598;DHT22;57424;53.128;6.406;2023-04-03T04:31:51;17.70;47.80
66598;DHT22;57424;53.128;6.406;2023-04-03T04:34:16;17.70;47.90
66598;DHT22;57424;53.128;6.406;2023-04-03T04:36:42;17.70;47.90
66598;DHT22;57424;53.128;6.406;2023-04-03T04:39:08;17.70;47.90
66598;DHT22;57424;53.128;6.406;2023-04-03T04:41:34;17.60;47.90
66598;DHT22;57424;53.128;6.406;2023-04-03T04:43:59;17.60;48.50
66598;DHT22;57424;53.128;6.406;2023-04-03T04:46:25;17.60;47.90
66598;DHT22;57424;53.128;6.406;2023-04-03T04:48:51;17.60;47.90
66598;DHT22;57424;53.128;6.406;2023-04-03T04:51:17;17.60;48.00
66598;DHT22;57424;53.128;6.406;2023-04-03T04:53:43;17.60;48.00
66598;DHT22;57424;53.128;6.406;2023-04-03T04:56:08;17.60;48.10
66598;DHT22;57424;53.128;6.406;2023-04-03T04:58:34;17.60;48.10
66598;DHT22;57424;53.128;6.406;2023-04-03T05:01:05;17.60;48.10
66598;DHT22;57424;53.128;6.406;2023-04-03T05:03:31;17.60;48.20
66598;DHT22;57424;53.128;6.406;2023-04-03T05:05:56;17.60;48.20
66598;DHT22;57424;53.128;6.406;2023-04-03T05:08:22;17.60;49.00
66598;DHT22;57424;53.128;6.406;2023-04-03T05:10:48;17.60;48.40
66598;DHT22;57424;53.128;6.406;2023-04-03T05:13:14;17.70;48.40
66598;DHT22;57424;53.128;6.406;2023-04-03T05:15:40;17.60;48.40
66598;DHT22;57424;53.128;6.406;2023-04-03T05:18:05;17.60;48.40
66598;DHT22;57424;53.128;6.406;2023-04-03T05:20:32;17.70;48.50
66598;DHT22;57424;53.128;6.406;2023-04-03T05:22:58;17.60;48.40
66598;DHT22;57424;53.128;6.406;2023-04-03T05:25:24;17.70;48.60
66598;DHT22;57424;53.128;6.406;2023-04-03T05:27:50;17.60;48.50
66598;DHT22;57424;53.128;6.406;2023-04-03T05:30:16;17.70;48.60
66598;DHT22;57424;53.128;6.406;2023-04-03T05:32:42;17.70;48.60
66598;DHT22;57424;53.128;6.406;2023-04-03T05:35:08;17.60;48.60
66598;DHT22;57424;53.128;6.406;2023-04-03T05:37:35;17.70;48.60
66598;DHT22;57424;53.128;6.406;2023-04-03T05:40:00;17.60;49.30
66598;DHT22;57424;53.128;6.406;2023-04-03T05:42:26;17.70;48.70
66598;DHT22;57424;53.128;6.406;2023-04-03T05:44:52;17.70;48.60
66598;DHT22;57424;53.128;6.406;2023-04-03T05:47:18;17.70;48.60
66598;DHT22;57424;53.128;6.406;2023-04-03T05:49:44;17.60;48.60
66598;DHT22;57424;53.128;6.406;2023-04-03T05:52:30;17.70;48.70
66598;DHT22;57424;53.128;6.406;2023-04-03T05:54:58;17.70;48.60
66598;DHT22;57424;53.128;6.406;2023-04-03T05:57:24;17.70;48.60
66598;DHT22;57424;53.128;6.406;2023-04-03T05:59:49;17.70;48.60
66598;DHT22;57424;53.128;6.406;2023-04-03T06:02:17;17.70;48.60
66598;DHT22;57424;53.128;6.406;2023-04-03T06:04:43;17.70;48.60
66598;DHT22;57424;53.128;6.406;2023-04-03T06:07:14;17.70;48.60
66598;DHT22;57424;53.128;6.406;2023-04-03T06:09:41;17.70;48.60
66598;DHT22;57424;53.128;6.406;2023-04-03T06:12:08;17.70;48.60
66598;DHT22;57424;53.128;6.406;2023-04-03T06:14:34;17.70;48.60
66598;DHT22;57424;53.128;6.406;2023-04-03T06:16:59;17.80;48.70
66598;DHT22;57424;53.128;6.406;2023-04-03T06:19:25;17.80;48.70
66598;DHT22;57424;53.128;6.406;2023-04-03T06:21:51;17.80;48.60
66598;DHT22;57424;53.128;6.406;2023-04-03T06:24:17;17.80;48.60
66598;DHT22;57424;53.128;6.406;2023-04-03T06:26:43;17.80;48.60
66598;DHT22;57424;53.128;6.406;2023-04-03T06:29:09;17.80;48.60
66598;DHT22;57424;53.128;6.406;2023-04-03T06:31:35;17.80;48.50
66598;DHT22;57424;53.128;6.406;2023-04-03T06:34:02;17.90;48.60
66598;DHT22;57424;53.128;6.406;2023-04-03T06:36:29;17.90;48.50
66598;DHT22;57424;53.128;6.406;2023-04-03T06:38:55;17.90;48.60
66598;DHT22;57424;53.128;6.406;2023-04-03T06:41:20;17.90;48.50
66598;DHT22;57424;53.128;6.406;2023-04-03T06:43:46;17.90;48.60
66598;DHT22;57424;53.128;6.406;2023-04-03T06:46:20;17.90;48.50
66598;DHT22;57424;53.128;6.406;2023-04-03T06:48:46;17.90;49.20
66598;DHT22;57424;53.128;6.406;2023-04-03T06:51:18;17.90;49.20
66598;DHT22;57424;53.128;6.406;2023-04-03T06:53:45;18.00;48.70
66598;DHT22;57424;53.128;6.406;2023-04-03T06:56:11;18.00;48.70
66598;DHT22;57424;53.128;6.406;2023-04-03T06:58:37;18.00;48.70
66598;DHT22;57424;53.128;6.406;2023-04-03T07:01:02;18.00;48.90
66598;DHT22;57424;53.128;6.406;2023-04-03T07:03:28;18.00;48.90
66598;DHT22;57424;53.128;6.406;2023-04-03T07:05:54;18.10;49.00
66598;DHT22;57424;53.128;6.406;2023-04-03T07:08:19;18.10;49.10
66598;DHT22;57424;53.128;6.406;2023-04-03T07:10:45;18.10;49.10
66598;DHT22;57424;53.128;6.406;2023-04-03T07:13:11;18.20;49.10
66598;DHT22;57424;53.128;6.406;2023-04-03T07:15:37;18.20;49.20
66598;DHT22;57424;53.128;6.406;2023-04-03T07:18:02;18.20;49.10
66598;DHT22;57424;53.128;6.406;2023-04-03T07:20:29;18.20;49.00
66598;DHT22;57424;53.128;6.406;2023-04-03T07:22:54;18.20;49.00
66598;DHT22;57424;53.128;6.406;2023-04-03T07:25:20;18.30;48.90
66598;DHT22;57424;53.128;6.406;2023-04-03T07:27:45;18.30;48.90
66598;DHT22;57424;53.128;6.406;2023-04-03T07:30:11;18.30;48.80
66598;DHT22;57424;53.128;6.406;2023-04-03T07:32:39;18.30;48.70
66598;DHT22;57424;53.128;6.406;2023-04-03T07:35:05;18.40;48.80
66598;DHT22;57424;53.128;6.406;2023-04-03T07:37:31;18.40;48.80
66598;DHT22;57424;53.128;6.406;2023-04-03T07:39:57;18.40;48.70
66598;DHT22;57424;53.128;6.406;2023-04-03T07:42:24;18.40;48.60
66598;DHT22;57424;53.128;6.406;2023-04-03T07:44:53;18.50;48.60
66598;DHT22;57424;53.128;6.406;2023-04-03T07:47:19;18.50;48.60
66598;DHT22;57424;53.128;6.406;2023-04-03T07:49:45;18.60;48.60
66598;DHT22;57424;53.128;6.406;2023-04-03T07:52:11;18.60;48.60
66598;DHT22;57424;53.128;6.406;2023-04-03T07:54:37;18.60;48.50
66598;DHT22;57424;53.128;6.406;2023-04-03T07:57:03;18.60;48.50
66598;DHT22;57424;53.128;6.406;2023-04-03T07:59:29;18.70;48.60
66598;DHT22;57424;53.128;6.406;2023-04-03T08:01:55;18.70;48.50
66598;DHT22;57424;53.128;6.406;2023-04-03T08:04:20;18.70;48.40
66598;DHT22;57424;53.128;6.406;2023-04-03T08:06:46;18.70;48.40
66598;DHT22;57424;53.128;6.406;2023-04-03T08:09:13;18.80;48.40
66598;DHT22;57424;53.128;6.406;2023-04-03T08:11:39;18.80;48.60
66598;DHT22;57424;53.128;6.406;2023-04-03T08:14:05;18.80;48.60
66598;DHT22;57424;53.128;6.406;2023-04-03T08:16:31;18.90;48.60
66598;DHT22;57424;53.128;6.406;2023-04-03T08:18:57;18.90;48.60
66598;DHT22;57424;53.128;6.406;2023-04-03T08:21:22;19.00;48.80
66598;DHT22;57424;53.128;6.406;2023-04-03T08:23:49;19.00;48.90
66598;DHT22;57424;53.128;6.406;2023-04-03T08:26:18;19.00;49.00
66598;DHT22;57424;53.128;6.406;2023-04-03T08:28:44;19.10;49.10
66598;DHT22;57424;53.128;6.406;2023-04-03T08:31:12;19.10;49.20
66598;DHT22;57424;53.128;6.406;2023-04-03T08:33:39;19.20;49.10
66598;DHT22;57424;53.128;6.406;2023-04-03T08:36:06;19.20;49.10
66598;DHT22;57424;53.128;6.406;2023-04-03T08:38:33;19.30;49.00
66598;DHT22;57424;53.128;6.406;2023-04-03T08:44:17;19.40;49.00
66598;DHT22;57424;53.128;6.406;2023-04-03T08:49:33;19.50;48.90
66598;DHT22;57424;53.128;6.406;2023-04-03T08:52:02;19.50;48.70
66598;DHT22;57424;53.128;6.406;2023-04-03T08:54:52;19.60;48.70
66598;DHT22;57424;53.128;6.406;2023-04-03T08:57:34;19.60;48.60
66598;DHT22;57424;53.128;6.406;2023-04-03T09:00:06;19.60;48.60
66598;DHT22;57424;53.128;6.406;2023-04-03T09:02:41;19.60;48.40
66598;DHT22;57424;53.128;6.406;2023-04-03T09:05:20;19.70;48.40
66598;DHT22;57424;53.128;6.406;2023-04-03T09:07:51;19.70;48.40
66598;DHT22;57424;53.128;6.406;2023-04-03T09:10:27;19.70;48.30
66598;DHT22;57424;53.128;6.406;2023-04-03T09:13:01;19.70;48.20
66598;DHT22;57424;53.128;6.406;2023-04-03T09:15:29;19.80;48.20
66598;DHT22;57424;53.128;6.406;2023-04-03T09:18:19;19.80;48.20
66598;DHT22;57424;53.128;6.406;2023-04-03T09:20:49;19.80;48.20
66598;DHT22;57424;53.128;6.406;2023-04-03T09:23:28;19.90;48.20
66598;DHT22;57424;53.128;6.406;2023-04-03T09:26:17;19.90;48.20
66598;DHT22;57424;53.128;6.406;2023-04-03T09:28:45;19.90;48.00
66598;DHT22;57424;53.128;6.406;2023-04-03T09:33:39;19.90;47.90
66598;DHT22;57424;53.128;6.406;2023-04-03T09:36:06;19.90;47.80
66598;DHT22;57424;53.128;6.406;2023-04-03T09:38:32;19.90;47.70
66598;DHT22;57424;53.128;6.406;2023-04-03T09:41:11;19.90;47.80
66598;DHT22;57424;53.128;6.406;2023-04-03T09:43:38;20.00;47.80
66598;DHT22;57424;53.128;6.406;2023-04-03T09:46:28;20.00;47.80
66598;DHT22;57424;53.128;6.406;2023-04-03T09:49:00;20.00;47.80
66598;DHT22;57424;53.128;6.406;2023-04-03T09:51:27;20.00;47.80
66598;DHT22;57424;53.128;6.406;2023-04-03T09:53:53;20.00;47.80
66598;DHT22;57424;53.128;6.406;2023-04-03T09:56:27;20.00;47.90
66598;DHT22;57424;53.128;6.406;2023-04-03T10:04:10;20.00;47.80
66598;DHT22;57424;53.128;6.406;2023-04-03T10:14:27;20.00;47.80
66598;DHT22;57424;53.128;6.406;2023-04-03T10:17:05;20.10;47.90
66598;DHT22;57424;53.128;6.406;2023-04-03T10:25:01;20.10;47.80
66598;DHT22;57424;53.128;6.406;2023-04-03T10:27:44;20.10;47.90
66598;DHT22;57424;53.128;6.406;2023-04-03T10:33:08;20.10;47.90
66598;DHT22;57424;53.128;6.406;2023-04-03T10:35:45;20.10;47.90
66598;DHT22;57424;53.128;6.406;2023-04-03T10:38:35;20.10;47.90
66598;DHT22;57424;53.128;6.406;2023-04-03T10:41:34;20.10;47.90
66598;DHT22;57424;53.128;6.406;2023-04-03T10:46:49;20.10;48.10
66598;DHT22;57424;53.128;6.406;2023-04-03T10:51:48;20.10;48.20
66598;DHT22;57424;53.128;6.406;2023-04-03T10:54:24;20.20;48.30
66598;DHT22;57424;53.128;6.406;2023-04-03T10:56:54;20.10;48.40
66598;DHT22;57424;53.128;6.406;2023-04-03T10:59:41;20.20;48.40
66598;DHT22;57424;53.128;6.406;2023-04-03T11:02:24;20.20;48.50
66598;DHT22;57424;53.128;6.406;2023-04-03T11:04:55;20.20;48.50
66598;DHT22;57424;53.128;6.406;2023-04-03T11:07:33;20.20;48.50
66598;DHT22;57424;53.128;6.406;2023-04-03T11:10:14;20.20;48.50
66598;DHT22;57424;53.128;6.406;2023-04-03T11:12:46;20.20;48.50
66598;DHT22;57424;53.128;6.406;2023-04-03T11:15:15;20.20;48.50
66598;DHT22;57424;53.128;6.406;2023-04-03T11:17:48;20.20;48.50
66598;DHT22;57424;53.128;6.406;2023-04-03T11:20:17;20.20;48.40
66598;DHT22;57424;53.128;6.406;2023-04-03T11:22:48;20.20;48.40
66598;DHT22;57424;53.128;6.406;2023-04-03T11:25:23;20.20;48.40
66598;DHT22;57424;53.128;6.406;2023-04-03T11:28:03;20.20;48.40
66598;DHT22;57424;53.128;6.406;2023-04-03T11:30:39;20.20;48.40
66598;DHT22;57424;53.128;6.406;2023-04-03T11:33:16;20.20;48.40
66598;DHT22;57424;53.128;6.406;2023-04-03T11:35:46;20.20;48.40
66598;DHT22;57424;53.128;6.406;2023-04-03T11:38:42;20.20;48.30
66598;DHT22;57424;53.128;6.406;2023-04-03T11:41:10;20.20;48.20
66598;DHT22;57424;53.128;6.406;2023-04-03T11:43:55;20.20;48.20
66598;DHT22;57424;53.128;6.406;2023-04-03T11:46:22;20.10;48.00
66598;DHT22;57424;53.128;6.406;2023-04-03T11:48:49;20.20;48.20
66598;DHT22;57424;53.128;6.406;2023-04-03T11:53:46;20.20;48.30
66598;DHT22;57424;53.128;6.406;2023-04-03T12:04:11;20.40;48.00
66598;DHT22;57424;53.128;6.406;2023-04-03T12:11:51;20.50;48.10
66598;DHT22;57424;53.128;6.406;2023-04-03T12:14:17;20.50;48.00
66598;DHT22;57424;53.128;6.406;2023-04-03T12:16:47;20.50;48.10
66598;DHT22;57424;53.128;6.406;2023-04-03T12:24:29;20.50;48.60
66598;DHT22;57424;53.128;6.406;2023-04-03T12:27:38;20.50;47.80
66598;DHT22;57424;53.128;6.406;2023-04-03T12:32:46;20.50;47.80
66598;DHT22;57424;53.128;6.406;2023-04-03T12:38:15;20.50;47.80
66598;DHT22;57424;53.128;6.406;2023-04-03T12:41:21;20.60;47.80
66598;DHT22;57424;53.128;6.406;2023-04-03T12:43:58;20.60;47.90
66598;DHT22;57424;53.128;6.406;2023-04-03T12:46:33;20.60;47.90
66598;DHT22;57424;53.128;6.406;2023-04-03T12:49:01;20.60;48.60
66598;DHT22;57424;53.128;6.406;2023-04-03T12:54:16;20.60;48.00
66598;DHT22;57424;53.128;6.406;2023-04-03T12:56:42;20.50;48.10
66598;DHT22;57424;53.128;6.406;2023-04-03T12:59:21;20.60;48.10
66598;DHT22;57424;53.128;6.406;2023-04-03T13:01:58;20.60;48.10
66598;DHT22;57424;53.128;6.406;2023-04-03T13:04:25;20.60;48.20
66598;DHT22;57424;53.128;6.406;2023-04-03T13:06:51;20.60;48.20
66598;DHT22;57424;53.128;6.406;2023-04-03T13:11:51;20.60;48.30
66598;DHT22;57424;53.128;6.406;2023-04-03T13:14:22;20.60;48.30
66598;DHT22;57424;53.128;6.406;2023-04-03T13:17:05;20.60;48.30
66598;DHT22;57424;53.128;6.406;2023-04-03T13:19:32;20.70;48.30
66598;DHT22;57424;53.128;6.406;2023-04-03T13:22:06;20.70;48.30
66598;DHT22;57424;53.128;6.406;2023-04-03T13:24:36;20.70;48.30
66598;DHT22;57424;53.128;6.406;2023-04-03T13:27:04;20.70;48.30
66598;DHT22;57424;53.128;6.406;2023-04-03T13:29:36;20.70;48.20
66598;DHT22;57424;53.128;6.406;2023-04-03T13:32:04;20.70;48.20
66598;DHT22;57424;53.128;6.406;2023-04-03T13:34:38;20.70;48.20
66598;DHT22;57424;53.128;6.406;2023-04-03T13:37:06;20.70;48.20
66598;DHT22;57424;53.128;6.406;2023-04-03T13:39:37;20.70;48.30
66598;DHT22;57424;53.128;6.406;2023-04-03T13:42:23;20.70;48.40
66598;DHT22;57424;53.128;6.406;2023-04-03T13:44:49;20.80;48.50
66598;DHT22;57424;53.128;6.406;2023-04-03T13:47:40;20.80;48.50
66598;DHT22;57424;53.128;6.406;2023-04-03T13:52:53;20.70;48.20
66598;DHT22;57424;53.128;6.406;2023-04-03T14:02:56;20.80;47.60
66598;DHT22;57424;53.128;6.406;2023-04-03T14:05:23;20.70;47.50
66598;DHT22;57424;53.128;6.406;2023-04-03T14:07:51;20.70;47.50
66598;DHT22;57424;53.128;6.406;2023-04-03T14:10:17;20.70;47.60
66598;DHT22;57424;53.128;6.406;2023-04-03T14:12:43;20.70;48.40
66598;DHT22;57424;53.128;6.406;2023-04-03T14:15:28;20.70;47.60
66598;DHT22;57424;53.128;6.406;2023-04-03T14:17:55;20.70;47.60
66598;DHT22;57424;53.128;6.406;2023-04-03T14:20:24;20.70;47.60
66598;DHT22;57424;53.128;6.406;2023-04-03T14:22:50;20.70;47.60
66598;DHT22;57424;53.128;6.406;2023-04-03T14:25:17;20.70;47.60
66598;DHT22;57424;53.128;6.406;2023-04-03T14:27:48;20.70;47.70
66598;DHT22;57424;53.128;6.406;2023-04-03T14:30:27;20.70;47.70
66598;DHT22;57424;53.128;6.406;2023-04-03T14:32:53;20.80;47.80
66598;DHT22;57424;53.128;6.406;2023-04-03T14:35:19;20.80;47.90
66598;DHT22;57424;53.128;6.406;2023-04-03T14:37:46;20.70;47.80
66598;DHT22;57424;53.128;6.406;2023-04-03T14:40:17;20.80;47.90
66598;DHT22;57424;53.128;6.406;2023-04-03T14:42:44;20.80;47.90
66598;DHT22;57424;53.128;6.406;2023-04-03T14:45:11;20.80;47.90
66598;DHT22;57424;53.128;6.406;2023-04-03T14:49:28;20.80;47.60
66598;DHT22;57424;53.128;6.406;2023-04-03T14:51:55;20.80;48.00
66598;DHT22;57424;53.128;6.406;2023-04-03T14:54:22;20.80;48.00
66598;DHT22;57424;53.128;6.406;2023-04-03T14:56:53;20.90;48.00
66598;DHT22;57424;53.128;6.406;2023-04-03T14:59:19;20.90;47.90
66598;DHT22;57424;53.128;6.406;2023-04-03T15:01:47;20.90;47.90
66598;DHT22;57424;53.128;6.406;2023-04-03T15:04:20;20.90;48.00
66598;DHT22;57424;53.128;6.406;2023-04-03T15:06:47;20.90;47.90
66598;DHT22;57424;53.128;6.406;2023-04-03T15:09:26;20.90;47.80
66598;DHT22;57424;53.128;6.406;2023-04-03T15:11:54;20.90;47.60
66598;DHT22;57424;53.128;6.406;2023-04-03T15:14:20;20.90;47.60
66598;DHT22;57424;53.128;6.406;2023-04-03T15:16:46;20.90;47.60
66598;DHT22;57424;53.128;6.406;2023-04-03T15:19:12;20.90;47.60
66598;DHT22;57424;53.128;6.406;2023-04-03T15:21:38;20.90;48.20
66598;DHT22;57424;53.128;6.406;2023-04-03T15:24:04;20.90;47.50
66598;DHT22;57424;53.128;6.406;2023-04-03T15:26:30;20.90;47.40
66598;DHT22;57424;53.128;6.406;2023-04-03T15:28:56;20.90;47.40
66598;DHT22;57424;53.128;6.406;2023-04-03T15:31:22;20.90;47.50
66598;DHT22;57424;53.128;6.406;2023-04-03T15:33:48;20.90;47.50
66598;DHT22;57424;53.128;6.406;2023-04-03T15:36:13;20.90;47.50
66598;DHT22;57424;53.128;6.406;2023-04-03T15:38:39;20.90;47.50
66598;DHT22;57424;53.128;6.406;2023-04-03T15:41:05;20.90;47.50
66598;DHT22;57424;53.128;6.406;2023-04-03T15:43:31;20.90;47.50
66598;DHT22;57424;53.128;6.406;2023-04-03T15:45:57;20.90;47.40
66598;DHT22;57424;53.128;6.406;2023-04-03T15:48:24;20.90;47.40
66598;DHT22;57424;53.128;6.406;2023-04-03T15:50:49;20.90;47.40
66598;DHT22;57424;53.128;6.406;2023-04-03T15:53:15;20.90;47.40
66598;DHT22;57424;53.128;6.406;2023-04-03T15:55:40;20.90;47.40
66598;DHT22;57424;53.128;6.406;2023-04-03T15:58:06;20.90;47.40
66598;DHT22;57424;53.128;6.406;2023-04-03T16:00:32;20.90;47.50
66598;DHT22;57424;53.128;6.406;2023-04-03T16:03:19;20.90;47.60
66598;DHT22;57424;53.128;6.406;2023-04-03T16:05:45;20.90;47.60
66598;DHT22;57424;53.128;6.406;2023-04-03T16:08:13;20.80;47.60
66598;DHT22;57424;53.128;6.406;2023-04-03T16:10:39;20.80;47.60
66598;DHT22;57424;53.128;6.406;2023-04-03T16:13:05;20.80;47.70
66598;DHT22;57424;53.128;6.406;2023-04-03T16:15:32;20.80;47.80
66598;DHT22;57424;53.128;6.406;2023-04-03T16:17:58;20.80;47.80
66598;DHT22;57424;53.128;6.406;2023-04-03T16:20:25;20.80;47.90
66598;DHT22;57424;53.128;6.406;2023-04-03T16:22:51;20.80;48.10
66598;DHT22;57424;53.128;6.406;2023-04-03T16:25:17;20.80;48.20
66598;DHT22;57424;53.128;6.406;2023-04-03T16:27:43;20.70;48.30
66598;DHT22;57424;53.128;6.406;2023-04-03T16:30:10;20.70;48.40
66598;DHT22;57424;53.128;6.406;2023-04-03T16:32:38;20.70;48.40
66598;DHT22;57424;53.128;6.406;2023-04-03T16:35:04;20.70;48.50
66598;DHT22;57424;53.128;6.406;2023-04-03T16:37:30;20.70;48.50
66598;DHT22;57424;53.128;6.406;2023-04-03T16:39:55;20.70;48.50
66598;DHT22;57424;53.128;6.406;2023-04-03T16:42:23;20.70;48.50
66598;DHT22;57424;53.128;6.406;2023-04-03T16:44:49;20.70;48.60
66598;DHT22;57424;53.128;6.406;2023-04-03T16:47:15;20.70;48.50
66598;DHT22;57424;53.128;6.406;2023-04-03T16:49:44;20.70;48.60
66598;DHT22;57424;53.128;6.406;2023-04-03T16:52:10;20.70;48.60
66598;DHT22;57424;53.128;6.406;2023-04-03T16:54:36;20.60;48.60
66598;DHT22;57424;53.128;6.406;2023-04-03T16:57:01;20.60;48.60
66598;DHT22;57424;53.128;6.406;2023-04-03T16:59:27;20.60;48.70
66598;DHT22;57424;53.128;6.406;2023-04-03T17:01:53;20.60;48.90
66598;DHT22;57424;53.128;6.406;2023-04-03T17:04:18;20.60;49.00